Chigorodo Airport


Codes: SKIG/IGO
Name: Chigorodo Airport
City: Chigorodo
Country: Colombia
Elevation: 110 ft.

Photos at Chigorodo Airport


   Photos courtesy of SpottingLog. You can add your own sightings and photos by signing up for a free trial today.



No photos found.

Weather at Chigorodo Airport


Time (UTC)DescriptionTempratureWindCloud coverageVisibilityPressureHumidity
15-Apr-2024 18:00Light Rain29°C7 mph, N60%10000m1008hPa73%
15-Apr-2024 21:00Light Rain29°C7 mph, N58%10000m1007hPa70%
16-Apr-2024 00:00Broken Clouds26°C7 mph, N80%10000m1009hPa87%
16-Apr-2024 03:00Overcast Clouds26°C4 mph, N99%10000m1011hPa89%
16-Apr-2024 06:00Light Rain25°C2 mph, N100%10000m1010hPa94%
16-Apr-2024 09:00Moderate Rain24°C2 mph, NW100%10000m1009hPa99%
16-Apr-2024 12:00Light Rain25°C2 mph, N100%10000m1011hPa97%
16-Apr-2024 15:00Light Rain28°C4 mph, N98%10000m1011hPa87%
16-Apr-2024 18:00Light Rain31°C7 mph, NW97%10000m1008hPa69%
16-Apr-2024 21:00Light Rain30°C7 mph, N100%10000m1006hPa71%
17-Apr-2024 00:00Light Rain26°C4 mph, N100%10000m1008hPa87%
17-Apr-2024 03:00Overcast Clouds26°C4 mph, N100%10000m1010hPa90%
17-Apr-2024 06:00Overcast Clouds25°C2 mph, NE100%10000m1009hPa93%
17-Apr-2024 09:00Light Rain25°C0 mph, N98%10000m1009hPa94%
17-Apr-2024 12:00Light Rain25°C0 mph, NW100%10000m1011hPa93%
17-Apr-2024 15:00Light Rain29°C4 mph, N91%10000m1011hPa74%
17-Apr-2024 18:00Light Rain31°C7 mph, N75%10000m1008hPa67%
17-Apr-2024 21:00Light Rain30°C7 mph, N98%10000m1007hPa72%
18-Apr-2024 00:00Light Rain26°C4 mph, N99%10000m1009hPa89%
18-Apr-2024 03:00Light Rain25°C4 mph, N91%6312m1011hPa98%
18-Apr-2024 06:00Moderate Rain24°C2 mph, NE95%10000m1010hPa99%
18-Apr-2024 09:00Light Rain24°C2 mph, NE100%10000m1010hPa99%
18-Apr-2024 12:00Light Rain24°C2 mph, SW100%10000m1012hPa100%
18-Apr-2024 15:00Light Rain26°C2 mph, SW100%10000m1013hPa94%
18-Apr-2024 18:00Light Rain28°C2 mph, W100%10000m1011hPa79%
18-Apr-2024 21:00Light Rain27°C4 mph, SW100%1150m1010hPa93%
19-Apr-2024 00:00Moderate Rain24°C2 mph, S100%10000m1012hPa98%
19-Apr-2024 03:00Light Rain24°C2 mph, S100%10000m1014hPa98%
19-Apr-2024 06:00Overcast Clouds23°C0 mph, SE100%10000m1012hPa99%
19-Apr-2024 09:00Light Rain23°C2 mph, NE100%10000m1011hPa99%
19-Apr-2024 12:00Overcast Clouds24°C0 mph, E100%10000m1012hPa96%
19-Apr-2024 15:00Light Rain29°C0 mph, NW100%10000m1013hPa73%
19-Apr-2024 18:00Light Rain32°C4 mph, NW97%10000m1010hPa60%
19-Apr-2024 21:00Light Rain30°C4 mph, N100%10000m1009hPa68%
20-Apr-2024 00:00Light Rain25°C2 mph, N96%10000m1011hPa95%
20-Apr-2024 03:00Light Rain24°C2 mph, E100%10000m1013hPa98%
20-Apr-2024 06:00Overcast Clouds24°C2 mph, NE100%10000m1012hPa97%
20-Apr-2024 09:00Broken Clouds23°C0 mph, E67%10000m1011hPa98%
20-Apr-2024 12:00Broken Clouds24°C2 mph, NE66%10000m1013hPa95%
20-Apr-2024 15:00Light Rain29°C4 mph, NW54%10000m1013hPa74%